Blue Mounds, Wisconsin
Current Conditions -  °F | °C
As of 10:35 AM on Thursday 30 Oct 2014 (Local Time) from KC29 Reporting Station
Overcast Overcast  
Wind Chill: 46°   Ceiling: 10000
Heat Index: 46°   Visibility: 10mi
Dew Point: 34°   Wind: 3mph
Humidity: 64%   Direction: 240°WSW
Pressure: 30.1"   Gusts: NA
Location:  43.02°N, 89.83°W
Report Text: KC29 301535Z AUTO 24003KT 10SM BKN100 OVC120 08/01 A3010 RMK AO1 T00770012
Loading
Personal Weather Stations






























Interactive Weather Map
Tropical Storm Tracking
New forecast layout! Learn more

10-Day Weather Forecast

Advertisements
Track Severe Weather on mobile